Time;durP1;ratioP1;P1;durP2;ratioP2;P2;SDS_P1;SDS_P2;PMS_P1;PMS_P2;Temp;Humidity;BMP_temperature;BMP_pressure;BME280_temperature;BME280_humidity;BME280_pressure;Samples;Min_cycle;Max_cycle;Signal;HPM_P1;HPM_P2
2020/12/24 00:02:08;;;;;;;0.20;0.20;;;9.90;80.20;;;;;;5012449;28;20528;-74
2020/12/24 00:04:33;;;;;;;0.38;0.10;;;10.00;80.40;;;;;;5012167;28;20489;-74
2020/12/24 00:06:59;;;;;;;0.08;0.08;;;10.00;80.70;;;;;;5013550;28;20054;-73
2020/12/24 00:09:25;;;;;;;0.00;0.00;;;10.00;80.30;;;;;;5012497;28;20018;-74
2020/12/24 00:11:50;;;;;;;0.10;0.10;;;9.90;79.40;;;;;;5012819;28;20034;-74
2020/12/24 00:14:16;;;;;;;0.10;0.10;;;9.90;79.20;;;;;;5013172;28;20425;-74
2020/12/24 00:16:42;;;;;;;0.35;0.17;;;9.90;79.70;;;;;;5012704;28;20022;-74
2020/12/24 00:19:08;;;;;;;0.13;0.10;;;9.90;79.70;;;;;;5012819;28;20026;-74
2020/12/24 00:21:37;;;;;;;0.10;0.10;;;9.90;79.70;;;;;;5017627;28;20024;-74
2020/12/24 00:24:04;;;;;;;0.15;0.10;;;9.80;79.60;;;;;;5014692;28;20425;-73
2020/12/24 00:26:30;;;;;;;1.35;0.10;;;9.80;79.40;;;;;;5011935;28;20026;-74
2020/12/24 00:28:56;;;;;;;0.43;0.20;;;9.70;79.30;;;;;;5012115;28;20037;-74
2020/12/24 00:31:21;;;;;;;1.55;0.10;;;9.70;79.30;;;;;;5012824;28;20022;-75
2020/12/24 00:33:47;;;;;;;1.65;0.25;;;9.70;79.70;;;;;;5016129;28;20390;-74
2020/12/24 00:36:12;;;;;;;0.90;0.10;;;9.70;79.30;;;;;;5016311;28;20049;-74
2020/12/24 00:38:38;;;;;;;0.20;0.10;;;9.60;79.50;;;;;;5016120;28;20026;-74
2020/12/24 00:41:07;;;;;;;0.43;0.20;;;9.60;79.10;;;;;;5016167;28;20060;-75
2020/12/24 00:43:33;;;;;;;0.30;0.10;;;9.60;79.20;;;;;;5017023;28;20029;-74
2020/12/24 00:45:59;;;;;;;1.38;0.30;;;9.70;78.80;;;;;;5015951;28;20041;-74
2020/12/24 00:48:25;;;;;;;0.88;0.30;;;9.70;78.30;;;;;;5016005;28;20366;-73
2020/12/24 00:50:50;;;;;;;0.47;0.10;;;9.70;78.40;;;;;;5015893;28;20053;-74
2020/12/24 00:53:16;;;;;;;1.33;0.15;;;9.70;78.30;;;;;;5017104;28;20029;-73
2020/12/24 00:55:42;;;;;;;0.13;0.10;;;9.70;79.00;;;;;;5015734;28;20022;-74
2020/12/24 00:58:07;;;;;;;0.88;0.20;;;9.60;79.70;;;;;;5015692;28;20074;-74
2020/12/24 01:00:33;;;;;;;0.43;0.17;;;9.60;79.80;;;;;;5015635;28;20026;-74
2020/12/24 01:02:59;;;;;;;0.10;0.10;;;9.60;80.00;;;;;;5015682;28;20354;-74
2020/12/24 01:05:24;;;;;;;0.80;0.10;;;9.60;80.00;;;;;;5015469;28;20037;-74
2020/12/24 01:07:50;;;;;;;0.13;0.13;;;9.60;80.20;;;;;;5015372;28;20129;-74
2020/12/24 01:10:16;;;;;;;1.05;0.10;;;9.60;80.00;;;;;;5015547;28;20504;-75
2020/12/24 01:12:41;;;;;;;0.20;0.10;;;9.60;80.10;;;;;;5015401;28;20022;-75
2020/12/24 01:15:09;;;;;;;0.28;0.10;;;9.60;80.60;;;;;;5015441;28;20396;-74
2020/12/24 01:17:36;;;;;;;0.88;0.17;;;9.60;80.90;;;;;;5015305;28;20544;-74
2020/12/24 01:20:06;;;;;;;0.30;0.10;;;9.50;81.60;;;;;;5015362;28;20052;-74
2020/12/24 01:22:33;;;;;;;0.35;0.30;;;9.50;81.70;;;;;;5014793;28;20121;-74
2020/12/24 01:24:59;;;;;;;1.83;0.35;;;9.40;82.10;;;;;;5015112;28;20076;-74
2020/12/24 01:27:25;;;;;;;2.00;0.30;;;9.40;82.50;;;;;;5015240;28;20022;-74
2020/12/24 01:29:51;;;;;;;1.02;0.20;;;9.30;82.70;;;;;;5014985;28;20088;-74
2020/12/24 01:32:20;;;;;;;1.40;0.28;;;9.30;83.40;;;;;;5015280;28;20389;-74
2020/12/24 01:34:46;;;;;;;0.40;0.10;;;9.30;83.30;;;;;;5014973;28;20022;-75
2020/12/24 01:37:11;;;;;;;2.05;0.30;;;9.30;83.90;;;;;;5015164;28;20129;-75
2020/12/24 01:39:37;;;;;;;1.33;0.30;;;9.30;84.30;;;;;;5014947;28;20026;-74
2020/12/24 01:42:03;;;;;;;0.73;0.20;;;9.20;84.40;;;;;;5014902;28;20381;-75
2020/12/24 01:44:29;;;;;;;0.22;0.20;;;9.30;84.80;;;;;;5013512;28;20038;-75
2020/12/24 01:46:54;;;;;;;1.35;0.40;;;9.30;85.10;;;;;;5016059;28;20355;-75
2020/12/24 01:49:20;;;;;;;0.40;0.20;;;9.20;86.80;;;;;;5014946;28;20504;-75
2020/12/24 01:51:51;;;;;;;0.73;0.30;;;9.20;87.90;;;;;;5014719;28;20121;-75
2020/12/24 01:54:19;;;;;;;0.88;0.32;;;9.10;88.50;;;;;;5016081;28;20184;-75
2020/12/24 01:56:46;;;;;;;1.48;0.10;;;8.90;89.50;;;;;;5015847;28;20017;-75
2020/12/24 01:59:15;;;;;;;1.00;0.25;;;8.70;85.50;;;;;;5015626;28;20041;-75
2020/12/24 02:01:51;;;;;;;1.85;0.13;;;8.70;84.60;;;;;;5014427;28;20088;-75
2020/12/24 02:04:17;;;;;;;0.17;0.10;;;8.70;83.50;;;;;;5015656;28;20065;-75
2020/12/24 02:06:44;;;;;;;0.20;0.00;;;8.80;82.00;;;;;;5015481;28;20085;-75
2020/12/24 02:09:10;;;;;;;0.43;0.17;;;8.70;80.70;;;;;;5015773;28;20374;-74
2020/12/24 02:11:38;;;;;;;1.08;0.20;;;8.60;80.40;;;;;;5014307;28;20057;-74
2020/12/24 02:14:04;;;;;;;0.55;0.00;;;8.50;79.30;;;;;;5015660;28;20018;-74
2020/12/24 02:16:32;;;;;;;0.25;0.05;;;8.40;79.10;;;;;;5014366;28;20025;-74
2020/12/24 02:18:58;;;;;;;0.75;0.20;;;8.30;79.40;;;;;;5014425;28;20110;-74
2020/12/24 02:21:23;;;;;;;1.42;0.20;;;8.30;79.30;;;;;;5014275;28;20106;-75
2020/12/24 02:23:49;;;;;;;0.32;0.10;;;8.20;78.60;;;;;;5014107;28;20084;-75
2020/12/24 02:26:14;;;;;;;0.70;0.15;;;8.10;78.80;;;;;;5014102;28;20030;-75
2020/12/24 02:28:40;;;;;;;1.15;0.28;;;8.00;78.60;;;;;;5014116;28;20030;-75
2020/12/24 02:31:07;;;;;;;0.63;0.10;;;7.90;78.70;;;;;;5014185;28;20486;-74
2020/12/24 02:33:33;;;;;;;1.73;0.20;;;7.80;78.00;;;;;;5017273;28;20030;-75
2020/12/24 02:35:58;;;;;;;0.30;0.20;;;7.80;78.20;;;;;;5018915;28;20084;-75
2020/12/24 02:38:24;;;;;;;0.88;0.20;;;7.80;78.20;;;;;;5016011;28;20481;-75
2020/12/24 02:40:50;;;;;;;1.73;0.28;;;8.00;77.00;;;;;;5015103;28;20034;-75
2020/12/24 02:43:16;;;;;;;1.75;0.20;;;7.90;75.80;;;;;;5014090;28;20165;-75
2020/12/24 02:45:41;;;;;;;2.75;0.20;;;7.90;75.50;;;;;;5013473;28;20042;-75
2020/12/24 02:48:07;;;;;;;2.05;0.30;;;7.90;73.50;;;;;;5014972;28;20026;-75
2020/12/24 02:50:33;;;;;;;1.75;0.17;;;7.80;72.60;;;;;;5013088;28;20087;-75
2020/12/24 02:52:58;;;;;;;1.83;0.32;;;7.70;72.20;;;;;;5014825;28;20026;-74
2020/12/24 02:55:24;;;;;;;3.13;0.70;;;7.80;73.20;;;;;;5014450;28;20030;-74
2020/12/24 02:57:50;;;;;;;1.25;0.20;;;7.60;73.80;;;;;;5013167;28;20033;-74
2020/12/24 03:00:15;;;;;;;0.88;0.20;;;7.60;74.20;;;;;;5014583;28;20022;-74
2020/12/24 03:02:41;;;;;;;1.55;0.30;;;7.50;75.40;;;;;;5013286;28;20050;-74
2020/12/24 03:05:07;;;;;;;0.52;0.20;;;7.40;76.80;;;;;;5012992;28;20482;-75
2020/12/24 03:07:33;;;;;;;0.90;0.20;;;7.30;77.70;;;;;;5013154;28;20049;-74
2020/12/24 03:09:59;;;;;;;1.85;0.28;;;7.20;77.60;;;;;;5014523;28;20038;-75
2020/12/24 03:12:26;;;;;;;1.35;0.10;;;7.20;78.30;;;;;;5014437;28;20058;-74
2020/12/24 03:14:52;;;;;;;0.10;0.10;;;7.30;78.30;;;;;;5013130;28;20030;-73
2020/12/24 03:17:18;;;;;;;0.17;0.10;;;7.30;78.30;;;;;;5014375;28;20018;-74
2020/12/24 03:19:45;;;;;;;2.25;0.13;;;7.20;78.80;;;;;;5014253;28;20101;-74
2020/12/24 03:22:10;;;;;;;1.38;0.00;;;7.10;77.90;;;;;;5013033;28;20061;-74
2020/12/24 03:24:36;;;;;;;0.35;0.08;;;7.10;78.60;;;;;;5012544;28;20058;-74
2020/12/24 03:27:02;;;;;;;0.77;0.03;;;7.10;78.00;;;;;;5012571;28;20022;-73
2020/12/24 03:29:27;;;;;;;0.10;0.10;;;7.10;78.50;;;;;;5012670;28;20033;-73
2020/12/24 03:31:53;;;;;;;0.43;0.17;;;7.20;77.50;;;;;;5012483;28;20028;-74
2020/12/24 03:34:19;;;;;;;0.50;0.10;;;7.10;77.90;;;;;;5013906;28;20363;-74
2020/12/24 03:36:44;;;;;;;1.08;0.20;;;7.00;78.90;;;;;;5013873;28;20033;-75
2020/12/24 03:39:10;;;;;;;2.15;0.20;;;7.00;78.20;;;;;;5012723;28;20458;-73
2020/12/24 03:41:35;;;;;;;1.55;0.10;;;7.00;77.80;;;;;;5014053;28;20079;-73
2020/12/24 03:44:01;;;;;;;0.55;0.13;;;7.10;77.60;;;;;;5012546;28;20029;-73
2020/12/24 03:46:27;;;;;;;0.70;0.10;;;7.00;77.50;;;;;;5013880;28;20092;-75
2020/12/24 03:48:52;;;;;;;1.38;0.30;;;7.00;77.00;;;;;;5013685;28;20033;-75
2020/12/24 03:51:18;;;;;;;2.22;0.20;;;7.10;76.60;;;;;;5013674;28;20026;-73
2020/12/24 03:53:44;;;;;;;2.72;0.20;;;7.10;75.70;;;;;;5013674;28;20030;-76
2020/12/24 03:56:10;;;;;;;4.13;0.20;;;7.10;76.70;;;;;;5012475;28;20125;-75
2020/12/24 03:58:36;;;;;;;4.85;0.52;;;7.10;76.30;;;;;;5012326;28;20113;-76
2020/12/24 04:01:01;;;;;;;0.93;0.40;;;7.10;75.80;;;;;;5012040;28;20139;-76
2020/12/24 04:03:27;;;;;;;3.83;0.60;;;7.10;74.90;;;;;;5013541;28;20502;-75
2020/12/24 04:05:53;;;;;;;5.47;0.50;;;7.20;74.40;;;;;;5011229;28;20038;-75
2020/12/24 04:08:18;;;;;;;3.38;0.60;;;7.30;74.00;;;;;;5012166;28;20086;-75
2020/12/24 04:10:44;;;;;;;5.35;0.40;;;7.30;74.30;;;;;;5013448;28;20029;-74
2020/12/24 04:13:09;;;;;;;2.88;0.57;;;7.30;74.40;;;;;;5012128;28;20018;-75
2020/12/24 04:15:35;;;;;;;4.63;0.50;;;7.30;74.20;;;;;;5011809;28;20113;-75
2020/12/24 04:18:01;;;;;;;2.90;0.82;;;7.40;73.50;;;;;;5013344;28;20037;-75
2020/12/24 04:20:26;;;;;;;2.45;0.63;;;7.40;73.50;;;;;;5013137;28;20114;-75
2020/12/24 04:22:52;;;;;;;4.30;0.60;;;7.40;73.60;;;;;;5013014;28;20022;-76
2020/12/24 04:25:18;;;;;;;5.15;0.60;;;7.40;73.00;;;;;;5011465;28;20125;-76
2020/12/24 04:27:43;;;;;;;4.45;0.50;;;7.40;73.20;;;;;;5011904;28;20021;-75
2020/12/24 04:30:09;;;;;;;3.92;0.40;;;7.40;72.70;;;;;;5013251;28;20358;-76
2020/12/24 04:32:35;;;;;;;2.17;0.47;;;7.40;72.40;;;;;;5013229;28;20048;-76
2020/12/24 04:35:01;;;;;;;0.77;0.38;;;7.50;73.10;;;;;;5013060;28;20061;-75
2020/12/24 04:37:27;;;;;;;4.32;0.70;;;7.40;72.80;;;;;;5011814;28;20018;-76
2020/12/24 04:39:53;;;;;;;6.78;0.75;;;7.40;72.90;;;;;;5011643;28;20022;-76
2020/12/24 04:42:22;;;;;;;1.65;0.57;;;7.40;72.50;;;;;;5011834;28;20507;-76
2020/12/24 04:44:49;;;;;;;7.97;1.30;;;7.40;72.40;;;;;;5011475;28;20192;-75
2020/12/24 04:47:19;;;;;;;5.00;0.60;;;7.30;71.60;;;;;;5013014;28;20537;-75
2020/12/24 04:49:45;;;;;;;2.83;0.38;;;7.30;72.10;;;;;;5011925;28;20026;-75
2020/12/24 04:52:15;;;;;;;7.38;0.85;;;7.30;71.40;;;;;;5011721;28;20034;-76
2020/12/24 04:54:41;;;;;;;6.88;0.80;;;7.40;71.00;;;;;;5012939;28;20030;-76
2020/12/24 04:57:09;;;;;;;4.30;0.35;;;7.30;70.80;;;;;;5012925;28;20083;-76
2020/12/24 04:59:35;;;;;;;3.92;0.95;;;7.30;71.20;;;;;;5011639;28;20022;-76
2020/12/24 05:02:02;;;;;;;7.30;0.77;;;7.30;71.50;;;;;;5011669;28;20450;-76
2020/12/24 05:04:28;;;;;;;6.15;0.57;;;7.40;70.70;;;;;;5011499;28;20034;-75
2020/12/24 05:07:05;;;;;;;2.53;0.60;;;7.40;71.60;;;;;;5011459;28;20041;-75
2020/12/24 05:09:31;;;;;;;4.85;1.00;;;7.30;72.20;;;;;;5011613;28;20030;-75
2020/12/24 05:11:56;;;;;;;4.38;1.17;;;7.30;72.60;;;;;;5011449;28;20095;-76
2020/12/24 05:14:23;;;;;;;4.30;0.95;;;7.20;72.30;;;;;;5011490;28;20026;-75
2020/12/24 05:17:06;;;;;;;3.67;0.70;;;7.20;72.00;;;;;;5011215;28;20048;-75
2020/12/24 05:19:48;;;;;;;7.10;0.98;;;7.20;71.80;;;;;;5015093;28;20045;-76
2020/12/24 05:22:18;;;;;;;8.68;1.20;;;7.20;72.40;;;;;;5015206;28;20029;-76
2020/12/24 05:24:44;;;;;;;3.83;0.70;;;7.00;73.70;;;;;;5014975;28;20057;-76
2020/12/24 05:27:13;;;;;;;5.82;0.93;;;6.90;75.90;;;;;;5016445;28;20026;-75
2020/12/24 05:29:40;;;;;;;4.50;0.80;;;6.80;76.80;;;;;;5016130;28;20041;-75
2020/12/24 05:32:07;;;;;;;3.20;0.90;;;6.70;76.80;;;;;;5016234;28;20100;-75
2020/12/24 05:34:33;;;;;;;3.75;0.65;;;6.70;77.50;;;;;;5014670;28;20473;-75
2020/12/24 05:37:18;;;;;;;4.10;0.80;;;6.70;77.60;;;;;;5014860;28;20044;-75
2020/12/24 05:39:45;;;;;;;3.30;0.70;;;6.80;75.70;;;;;;5015999;28;20030;-76
2020/12/24 05:42:11;;;;;;;5.68;0.75;;;6.80;75.60;;;;;;5016084;28;20524;-75
2020/12/24 05:44:38;;;;;;;5.82;0.70;;;6.90;75.30;;;;;;5014518;28;20116;-76
2020/12/24 05:47:05;;;;;;;8.25;1.20;;;6.90;74.40;;;;;;5014353;28;20057;-76
2020/12/24 05:49:32;;;;;;;6.45;0.90;;;6.90;74.40;;;;;;4998456;28;20022;-76
2020/12/24 05:52:03;;;;;;;5.05;0.70;;;6.90;73.10;;;;;;4998514;28;20061;-76
2020/12/24 05:54:30;;;;;;;8.65;1.02;;;7.00;71.50;;;;;;5015705;28;20018;-75
2020/12/24 05:56:57;;;;;;;2.50;0.50;;;7.00;71.20;;;;;;5015951;28;20076;-76
2020/12/24 05:59:25;;;;;;;6.10;1.35;;;7.10;70.10;;;;;;5015750;28;20026;-75
2020/12/24 06:01:57;;;;;;;4.13;0.80;;;7.00;70.40;;;;;;5014509;28;20022;-76
2020/12/24 06:04:45;;;;;;;7.18;0.90;;;7.00;71.20;;;;;;5014435;28;20026;-76
2020/12/24 06:07:20;;;;;;;7.00;0.70;;;6.90;71.90;;;;;;5014266;28;20046;-75
2020/12/24 06:09:48;;;;;;;4.33;0.70;;;6.80;72.40;;;;;;5014397;28;20022;-76
2020/12/24 06:12:25;;;;;;;8.20;0.95;;;6.80;72.30;;;;;;5013945;28;20268;-76
2020/12/24 06:14:52;;;;;;;7.18;0.93;;;6.80;70.90;;;;;;5014156;28;20034;-76
2020/12/24 06:17:19;;;;;;;5.47;0.93;;;6.90;70.00;;;;;;5014125;28;20026;-76
2020/12/24 06:19:45;;;;;;;10.05;1.30;;;7.00;67.80;;;;;;5014157;28;20022;-77
2020/12/24 06:22:11;;;;;;;5.65;0.95;;;7.10;65.50;;;;;;5015064;28;20049;-76
2020/12/24 06:24:51;;;;;;;7.55;1.20;;;7.10;66.00;;;;;;5013689;28;20032;-76
2020/12/24 06:27:43;;;;;;;6.63;1.02;;;7.10;64.90;;;;;;5015057;28;20053;-76
2020/12/24 06:30:38;;;;;;;5.20;1.67;;;7.10;65.60;;;;;;5013243;28;20478;-75
2020/12/24 06:33:04;;;;;;;5.25;0.80;;;7.00;65.50;;;;;;4997322;28;20030;-76
2020/12/24 06:35:40;;;;;;;4.82;0.95;;;7.00;64.30;;;;;;5014991;28;20037;-75
2020/12/24 06:38:11;;;;;;;7.13;0.98;;;7.20;63.50;;;;;;5015038;28;20018;-74
2020/12/24 06:40:38;;;;;;;3.30;0.82;;;7.20;62.90;;;;;;5025775;28;20056;-75
2020/12/24 06:43:08;;;;;;;4.30;0.90;;;7.20;63.20;;;;;;5030587;28;20025;-75
2020/12/24 06:45:41;;;;;;;3.70;1.13;;;7.10;63.70;;;;;;5014195;28;20401;-76
2020/12/24 06:48:16;;;;;;;10.10;1.30;;;7.10;63.20;;;;;;5014816;28;20105;-74
2020/12/24 06:50:58;;;;;;;7.32;1.35;;;7.20;63.80;;;;;;5013365;28;20036;-74
2020/12/24 06:53:27;;;;;;;4.93;0.95;;;7.10;64.00;;;;;;5013347;28;20030;-74
2020/12/24 06:56:15;;;;;;;9.45;1.15;;;7.10;63.90;;;;;;5013210;28;20026;-74
2020/12/24 06:58:47;;;;;;;6.95;1.00;;;7.10;64.30;;;;;;5014528;28;20021;-74
2020/12/24 07:01:23;;;;;;;7.35;1.38;;;7.10;64.40;;;;;;5014398;28;20109;-75
2020/12/24 07:03:50;;;;;;;7.75;1.00;;;7.10;64.30;;;;;;5014237;28;20026;-75
2020/12/24 07:06:41;;;;;;;9.68;1.10;;;7.20;64.50;;;;;;5014022;28;20041;-75
2020/12/24 07:09:32;;;;;;;8.65;0.70;;;7.10;64.80;;;;;;5014126;28;20049;-74
2020/12/24 07:11:59;;;;;;;7.90;1.10;;;7.20;65.20;;;;;;5014787;28;20398;-77
2020/12/24 07:14:33;;;;;;;12.75;1.45;;;7.10;65.30;;;;;;5020324;28;20037;-75
2020/12/24 07:17:06;;;;;;;4.85;1.10;;;7.10;65.00;;;;;;5025691;28;20079;-75
2020/12/24 07:19:33;;;;;;;6.43;0.73;;;7.20;63.70;;;;;;5015367;28;20482;-75
2020/12/24 07:22:04;;;;;;;5.30;1.20;;;7.30;63.50;;;;;;5014417;28;20022;-77
2020/12/24 07:24:30;;;;;;;8.85;1.67;;;7.30;63.00;;;;;;5013461;28;20040;-76
2020/12/24 07:27:01;;;;;;;4.63;0.98;;;7.30;62.90;;;;;;5014325;28;20478;-77
2020/12/24 07:29:30;;;;;;;4.82;0.88;;;7.30;63.10;;;;;;5014231;28;20373;-76
2020/12/24 07:31:59;;;;;;;6.40;0.70;;;7.30;62.60;;;;;;5018952;28;20053;-77
2020/12/24 07:34:26;;;;;;;4.45;1.05;;;7.20;62.90;;;;;;5015943;28;20028;-76
2020/12/24 07:36:52;;;;;;;3.92;0.68;;;7.20;62.90;;;;;;5013677;28;20049;-76
2020/12/24 07:39:18;;;;;;;6.25;0.70;;;7.20;62.90;;;;;;5013699;28;20022;-76
2020/12/24 07:41:44;;;;;;;9.43;1.17;;;7.20;63.00;;;;;;5012597;28;20042;-75
2020/12/24 07:44:18;;;;;;;7.65;0.90;;;7.20;62.90;;;;;;5013900;28;20028;-75
2020/12/24 07:46:51;;;;;;;4.18;0.70;;;7.20;62.80;;;;;;5013643;28;20064;-77
2020/12/24 07:49:18;;;;;;;6.53;0.85;;;7.20;63.00;;;;;;5013468;28;20045;-75
2020/12/24 07:51:56;;;;;;;3.05;0.60;;;7.30;62.50;;;;;;5013582;28;20080;-75
2020/12/24 07:54:28;;;;;;;2.55;0.45;;;7.30;62.50;;;;;;5012184;28;20049;-76
2020/12/24 07:56:55;;;;;;;4.63;0.50;;;7.30;62.30;;;;;;5012181;28;20033;-76
2020/12/24 07:59:22;;;;;;;2.42;0.55;;;7.30;62.10;;;;;;5013406;28;20061;-76
2020/12/24 08:01:47;;;;;;;3.17;0.60;;;7.40;61.60;;;;;;5012257;28;20049;-76
2020/12/24 08:04:13;;;;;;;4.50;0.63;;;7.30;61.80;;;;;;5011842;28;20474;-75
2020/12/24 08:06:39;;;;;;;3.70;0.80;;;7.40;61.50;;;;;;5013034;28;20498;-75
2020/12/24 08:09:16;;;;;;;3.38;0.80;;;7.50;61.50;;;;;;5013153;28;20537;-76
2020/12/24 08:11:51;;;;;;;2.78;0.60;;;7.60;61.60;;;;;;5013026;28;20042;-76
2020/12/24 08:14:21;;;;;;;4.30;1.00;;;7.60;61.90;;;;;;5013034;28;20120;-76
2020/12/24 08:16:47;;;;;;;3.80;1.10;;;7.70;62.10;;;;;;5012882;28;20079;-76
2020/12/24 08:19:18;;;;;;;5.00;0.77;;;7.80;61.90;;;;;;5012908;28;20030;-76
2020/12/24 08:22:01;;;;;;;5.15;1.00;;;7.70;62.80;;;;;;5012616;28;20048;-76
2020/12/24 08:24:28;;;;;;;3.25;0.95;;;7.70;63.10;;;;;;5012795;28;20529;-76
2020/12/24 08:26:56;;;;;;;4.72;1.00;;;7.50;64.30;;;;;;5013062;28;20588;-76
2020/12/24 08:29:23;;;;;;;4.35;0.70;;;7.50;65.60;;;;;;5011474;28;20021;-76
2020/12/24 08:31:50;;;;;;;6.88;0.82;;;7.60;67.90;;;;;;5012637;28;20038;-75
2020/12/24 08:34:16;;;;;;;3.90;1.00;;;7.50;67.90;;;;;;5011520;28;20160;-75
2020/12/24 08:36:47;;;;;;;2.65;0.95;;;7.30;68.70;;;;;;5011601;28;20117;-75
2020/12/24 08:39:18;;;;;;;3.55;0.70;;;7.30;70.10;;;;;;5016056;28;20385;-76
2020/12/24 08:41:55;;;;;;;4.90;0.80;;;7.10;71.10;;;;;;5014131;28;20037;-75
2020/12/24 08:44:22;;;;;;;6.88;1.38;;;7.00;72.50;;;;;;5012273;28;20025;-75
2020/12/24 08:47:04;;;;;;;6.90;1.00;;;6.90;73.90;;;;;;5011371;28;20034;-76
2020/12/24 08:49:30;;;;;;;5.35;1.00;;;6.90;74.40;;;;;;5012831;28;20026;-75
2020/12/24 08:52:17;;;;;;;8.32;0.93;;;6.90;73.90;;;;;;5012744;28;20030;-75
2020/12/24 08:55:03;;;;;;;4.25;0.80;;;6.90;74.40;;;;;;5015298;28;20041;-75
2020/12/24 08:57:28;;;;;;;7.07;1.08;;;6.90;74.00;;;;;;5006030;28;20034;-76
2020/12/24 08:59:59;;;;;;;2.90;0.60;;;6.80;74.10;;;;;;5016631;28;20033;-75
2020/12/24 09:02:32;;;;;;;21.25;2.90;;;6.80;74.20;;;;;;5016569;28;20018;-76
2020/12/24 09:05:00;;;;;;;3.58;0.55;;;6.80;74.70;;;;;;5015481;28;20030;-75
2020/12/24 09:07:35;;;;;;;3.00;0.55;;;6.80;74.40;;;;;;5014471;28;20062;-73
2020/12/24 09:10:11;;;;;;;4.82;0.70;;;6.90;74.00;;;;;;4998894;28;20429;-74
2020/12/24 09:12:40;;;;;;;5.82;0.90;;;6.90;72.30;;;;;;5016197;28;20080;-74
2020/12/24 09:15:09;;;;;;;4.68;0.60;;;6.80;72.30;;;;;;5014999;28;20026;-74
2020/12/24 09:17:35;;;;;;;3.75;0.70;;;6.70;72.70;;;;;;5014557;28;20026;-74
2020/12/24 09:20:06;;;;;;;2.85;0.40;;;6.70;72.70;;;;;;5014388;28;20051;-74
2020/12/24 09:22:32;;;;;;;1.25;0.32;;;6.70;72.90;;;;;;5014293;28;20022;-74
2020/12/24 09:24:58;;;;;;;3.67;0.77;;;6.70;72.70;;;;;;5014084;28;20124;-74
2020/12/24 09:27:24;;;;;;;3.20;0.70;;;6.60;73.20;;;;;;5014571;28;20022;-74
2020/12/24 09:29:49;;;;;;;1.63;0.50;;;6.50;73.80;;;;;;5014393;28;20037;-74
2020/12/24 09:32:15;;;;;;;3.10;0.50;;;6.50;74.10;;;;;;5014373;28;20018;-74
2020/12/24 09:34:41;;;;;;;1.58;0.38;;;6.50;74.00;;;;;;4997843;28;20030;-74
2020/12/24 09:37:06;;;;;;;2.60;0.35;;;6.50;74.50;;;;;;5014231;28;20030;-75
2020/12/24 09:39:32;;;;;;;1.65;0.25;;;6.60;73.40;;;;;;5013708;28;20026;-75
2020/12/24 09:41:58;;;;;;;4.53;0.85;;;6.50;74.30;;;;;;5014487;28;20022;-74
2020/12/24 09:44:23;;;;;;;2.67;0.43;;;6.50;74.00;;;;;;5014433;28;20117;-75
2020/12/24 09:46:49;;;;;;;4.85;0.57;;;6.50;73.70;;;;;;5013963;28;20030;-75
2020/12/24 09:49:16;;;;;;;3.88;0.60;;;6.60;73.50;;;;;;5014302;28;20025;-75
2020/12/24 09:51:41;;;;;;;1.10;0.40;;;6.50;73.40;;;;;;5014284;28;20030;-74
2020/12/24 09:54:07;;;;;;;0.60;0.30;;;6.50;73.70;;;;;;5014376;28;20026;-75
2020/12/24 09:56:33;;;;;;;0.85;0.10;;;6.60;73.80;;;;;;5013924;28;20022;-75
2020/12/24 09:59:00;;;;;;;0.70;0.20;;;6.70;73.00;;;;;;5014901;28;20030;-75
2020/12/24 10:01:26;;;;;;;1.33;0.15;;;6.80;72.80;;;;;;5015305;28;20104;-75
2020/12/24 10:03:53;;;;;;;1.10;0.28;;;6.90;72.30;;;;;;5019334;28;20037;-75
2020/12/24 10:06:19;;;;;;;0.28;0.20;;;7.00;71.60;;;;;;5017696;28;20041;-74
2020/12/24 10:08:45;;;;;;;0.32;0.10;;;7.10;71.10;;;;;;5014262;28;20022;-74
2020/12/24 10:11:14;;;;;;;0.10;0.10;;;7.10;70.40;;;;;;5013912;28;20030;-74
2020/12/24 10:13:40;;;;;;;0.45;0.30;;;7.20;70.10;;;;;;5013215;28;20493;-73
2020/12/24 10:16:06;;;;;;;0.38;0.15;;;7.20;70.50;;;;;;5014542;28;20037;-74
2020/12/24 10:18:32;;;;;;;0.52;0.20;;;7.10;70.00;;;;;;5013414;28;20022;-74
2020/12/24 10:20:57;;;;;;;0.55;0.10;;;7.30;69.50;;;;;;5014182;28;20033;-73
2020/12/24 10:23:24;;;;;;;0.50;0.30;;;7.30;69.50;;;;;;5014403;28;20048;-74
2020/12/24 10:25:50;;;;;;;0.52;0.10;;;7.40;69.50;;;;;;5015162;28;20077;-73
2020/12/24 10:28:15;;;;;;;2.97;0.40;;;7.30;69.50;;;;;;5013216;28;20033;-75
2020/12/24 10:30:43;;;;;;;0.68;0.30;;;7.30;70.20;;;;;;5013278;28;20090;-74
2020/12/24 10:33:08;;;;;;;0.20;0.20;;;7.30;70.10;;;;;;4997189;28;20501;-74
2020/12/24 10:35:36;;;;;;;1.77;0.40;;;7.40;70.30;;;;;;5013394;28;20041;-75
2020/12/24 10:38:02;;;;;;;3.03;0.40;;;7.30;69.90;;;;;;5013132;28;20077;-74
2020/12/24 10:40:28;;;;;;;1.95;0.30;;;7.40;69.90;;;;;;5013394;28;20022;-73
2020/12/24 10:42:54;;;;;;;2.40;0.40;;;7.30;70.50;;;;;;5014386;28;20425;-74
2020/12/24 10:45:19;;;;;;;1.05;0.60;;;7.40;70.10;;;;;;5013318;28;20038;-74
2020/12/24 10:47:45;;;;;;;1.25;0.20;;;7.40;70.30;;;;;;5012983;28;20022;-74
2020/12/24 10:50:10;;;;;;;0.20;0.17;;;7.50;69.80;;;;;;4997104;28;20058;-73
2020/12/24 10:52:36;;;;;;;2.97;0.50;;;7.50;69.50;;;;;;5012996;28;20509;-74
2020/12/24 10:55:02;;;;;;;2.38;0.45;;;7.40;69.50;;;;;;5013198;28;20029;-74
2020/12/24 10:57:28;;;;;;;0.82;0.28;;;7.50;70.00;;;;;;5012877;28;20079;-73
2020/12/24 10:59:53;;;;;;;0.38;0.25;;;7.50;69.70;;;;;;5012504;28;20112;-73
2020/12/24 11:02:19;;;;;;;2.95;0.82;;;7.60;69.20;;;;;;5012601;28;20033;-75
2020/12/24 11:04:44;;;;;;;0.32;0.20;;;7.40;69.40;;;;;;5012133;28;20025;-75
2020/12/24 11:07:10;;;;;;;1.05;0.17;;;7.40;69.40;;;;;;4995696;28;20497;-76
2020/12/24 11:09:35;;;;;;;0.45;0.20;;;7.30;69.80;;;;;;4996114;28;20022;-74
2020/12/24 11:12:01;;;;;;;3.05;0.30;;;7.30;70.30;;;;;;5012285;28;20112;-74
2020/12/24 11:14:28;;;;;;;2.50;0.40;;;7.30;70.50;;;;;;5012554;28;20022;-73
2020/12/24 11:16:58;;;;;;;2.13;0.38;;;7.30;70.70;;;;;;5013243;28;20029;-74
2020/12/24 11:19:23;;;;;;;1.27;0.38;;;7.40;70.30;;;;;;5013566;28;20036;-73
2020/12/24 11:21:49;;;;;;;1.67;0.30;;;7.40;70.60;;;;;;5011946;28;20029;-74
2020/12/24 11:24:15;;;;;;;0.80;0.30;;;7.50;70.00;;;;;;5011993;28;20018;-74
2020/12/24 11:26:41;;;;;;;2.95;0.52;;;7.70;70.10;;;;;;5012187;28;20520;-72
2020/12/24 11:29:07;;;;;;;0.35;0.20;;;7.80;69.40;;;;;;5012185;28;20026;-73
2020/12/24 11:31:36;;;;;;;0.85;0.30;;;7.90;69.20;;;;;;5012203;28;20073;-73
2020/12/24 11:34:02;;;;;;;1.45;0.30;;;8.00;69.50;;;;;;5012292;28;20032;-73
2020/12/24 11:36:28;;;;;;;2.10;0.50;;;8.00;68.80;;;;;;5013276;28;20079;-75
2020/12/24 11:38:55;;;;;;;1.70;0.47;;;7.80;68.70;;;;;;5012243;28;20060;-73
2020/12/24 11:41:23;;;;;;;0.52;0.30;;;7.70;69.60;;;;;;5012285;28;20029;-73
2020/12/24 11:43:50;;;;;;;6.65;1.08;;;7.60;69.80;;;;;;5011864;28;20030;-73
2020/12/24 11:46:17;;;;;;;1.13;0.25;;;7.60;70.00;;;;;;5011506;28;20120;-75
2020/12/24 11:48:44;;;;;;;3.08;0.90;;;7.60;70.00;;;;;;5011966;28;20029;-74
2020/12/24 11:51:11;;;;;;;1.85;0.70;;;7.60;70.10;;;;;;5012164;28;20033;-73
2020/12/24 11:53:38;;;;;;;1.85;0.45;;;7.60;70.70;;;;;;5011268;28;20076;-74
2020/12/24 11:56:04;;;;;;;2.38;0.52;;;7.60;70.40;;;;;;5012035;28;20103;-73
2020/12/24 11:58:30;;;;;;;1.55;0.30;;;7.60;70.00;;;;;;4995380;28;20081;-74
2020/12/24 12:00:56;;;;;;;2.25;0.43;;;7.50;70.10;;;;;;5011515;28;20061;-74
2020/12/24 12:03:21;;;;;;;2.00;0.30;;;7.50;70.00;;;;;;5011149;28;20029;-75
2020/12/24 12:05:47;;;;;;;1.52;0.73;;;7.50;70.00;;;;;;5011366;28;20049;-75
2020/12/24 12:08:12;;;;;;;1.40;0.40;;;7.50;70.50;;;;;;5011423;28;20046;-74
2020/12/24 12:10:38;;;;;;;2.10;0.30;;;7.50;71.70;;;;;;5011813;28;20080;-75
2020/12/24 12:13:04;;;;;;;1.33;0.60;;;7.40;70.50;;;;;;5011539;28;20442;-74
2020/12/24 12:15:30;;;;;;;2.35;0.63;;;7.50;70.60;;;;;;5011678;28;20029;-74
2020/12/24 12:17:55;;;;;;;0.65;0.30;;;7.50;70.60;;;;;;5011578;28;20026;-74
2020/12/24 12:20:21;;;;;;;1.40;0.50;;;7.50;70.70;;;;;;5011710;28;20146;-76
2020/12/24 12:22:48;;;;;;;1.23;0.40;;;7.40;71.20;;;;;;5011013;28;20540;-75
2020/12/24 12:25:14;;;;;;;1.33;0.40;;;7.50;70.60;;;;;;5011403;28;20030;-74
2020/12/24 12:27:40;;;;;;;1.98;0.80;;;7.50;70.40;;;;;;5010838;28;20022;-76
2020/12/24 12:30:07;;;;;;;1.33;0.90;;;7.40;70.80;;;;;;5029693;28;20065;-77
2020/12/24 12:32:34;;;;;;;1.02;0.50;;;7.50;70.70;;;;;;5030988;28;20021;-77
2020/12/24 12:35:00;;;;;;;4.03;0.90;;;7.50;70.30;;;;;;5030581;28;20469;-77
2020/12/24 12:37:25;;;;;;;3.25;0.82;;;7.60;70.60;;;;;;5030761;28;20084;-76
2020/12/24 12:39:52;;;;;;;2.30;0.50;;;7.60;70.30;;;;;;5030491;28;20025;-76
2020/12/24 12:42:18;;;;;;;1.40;0.30;;;7.50;69.90;;;;;;5030697;28;20032;-76
2020/12/24 12:44:44;;;;;;;0.98;0.30;;;7.50;69.90;;;;;;5030396;28;20029;-77
2020/12/24 12:47:10;;;;;;;3.70;0.47;;;7.60;69.50;;;;;;5030847;28;20041;-77
2020/12/24 12:49:35;;;;;;;0.28;0.20;;;7.60;69.80;;;;;;5032021;28;20032;-76
2020/12/24 12:52:02;;;;;;;2.80;0.47;;;7.60;69.30;;;;;;5031027;28;20026;-78
2020/12/24 12:54:28;;;;;;;3.05;0.50;;;7.60;69.60;;;;;;5030580;28;20477;-74
2020/12/24 12:56:54;;;;;;;1.20;0.60;;;7.50;69.80;;;;;;5030849;28;20132;-75
2020/12/24 12:59:19;;;;;;;1.55;0.32;;;7.50;69.90;;;;;;5031267;28;20025;-75
2020/12/24 13:01:45;;;;;;;1.35;0.60;;;7.50;69.70;;;;;;5030695;28;20393;-74